Time;durP1;ratioP1;P1;durP2;ratioP2;P2;SDS_P1;SDS_P2;PMS_P1;PMS_P2;Temp;Humidity;BMP_temperature;BMP_pressure;BME280_temperature;BME280_humidity;BME280_pressure;Samples;Min_cycle;Max_cycle;Signal;HPM_P1;HPM_P2
2023/11/11 00:00:17;;;;;;;;;;;6.40;99.90;;;5.62;100.00;95956.09;5043695;28;1837;-67
2023/11/11 00:02:44;;;;;;;;;;;6.30;99.90;;;5.51;100.00;95994.41;5042892;28;1524;-68
2023/11/11 00:05:11;;;;;;;;;;;6.30;99.90;;;5.37;100.00;95987.34;5044524;28;2007;-67
2023/11/11 00:07:38;;;;;;;;;;;6.10;99.90;;;5.27;100.00;95988.66;5042388;28;1530;-68
2023/11/11 00:10:05;;;;;;;;;;;6.00;99.90;;;5.23;100.00;95975.13;5031083;28;1679;-68
2023/11/11 00:12:33;;;;;;;;;;;5.90;99.90;;;5.06;100.00;96001.59;5030226;28;1430;-67
2023/11/11 00:15:01;;;;;;;;;;;5.90;99.90;;;5.06;100.00;95999.03;5040562;28;1549;-67
2023/11/11 00:17:28;;;;;;;;;;;;;;;4.96;100.00;96018.38;5035779;28;1437;-67
2023/11/11 00:19:55;;;;;;;;;;;5.80;99.90;;;4.98;100.00;96012.25;5042864;28;1495;-67
2023/11/11 00:22:22;;;;;;;;;;;5.80;99.90;;;4.96;100.00;96039.78;5041507;28;1558;-68
2023/11/11 00:24:49;;;;;;;;;;;5.70;99.90;;;4.88;100.00;96030.72;5041956;28;1987;-68
2023/11/11 00:27:16;;;;;;;;;;;5.70;99.90;;;4.92;100.00;96058.81;5042360;28;1541;-68
2023/11/11 00:29:44;;;;;;;;;;;5.60;99.90;;;4.91;100.00;96085.44;5043702;28;1456;-68
2023/11/11 00:32:10;;;;;;;;;;;5.50;99.90;;;4.76;100.00;96104.09;5040562;28;1818;-67
2023/11/11 00:34:39;;;;;;;;;;;5.50;99.90;;;4.72;100.00;96111.13;5044843;28;1507;-68
2023/11/11 00:37:06;;;;;;;;;;;5.50;99.90;;;4.70;100.00;96118.06;5041149;28;1693;-68
2023/11/11 00:39:33;;;;;;;;;;;5.50;99.90;;;4.68;100.00;96142.97;5042474;28;1848;-67
2023/11/11 00:42:02;;;;;;;;;;;5.40;99.90;;;4.73;100.00;96169.31;5026628;28;1757;-68
2023/11/11 00:44:30;;;;;;;;;;;5.40;99.90;;;4.73;100.00;96159.03;5022148;28;1906;-68
2023/11/11 00:46:57;;;;;;;;;;;5.40;99.90;;;4.67;100.00;96179.03;5044803;28;1523;-68
2023/11/11 00:49:24;;;;;;;;;;;5.40;99.90;;;4.66;100.00;96188.47;5046256;28;1504;-68
2023/11/11 00:51:52;;;;;;;;;;;5.40;99.90;;;4.70;100.00;96209.72;5043226;28;1536;-68
2023/11/11 00:54:22;;;;;;;;;;;5.40;99.90;;;4.72;100.00;96231.94;5045684;28;1456;-68
2023/11/11 00:56:48;;;;;;;;;;;5.40;99.90;;;4.66;100.00;96229.59;5039587;28;1420;-69
2023/11/11 00:59:15;;;;;;;;;;;5.40;99.90;;;4.64;100.00;96244.25;5039572;28;1754;-68
2023/11/11 01:01:42;;;;;;;;;;;5.50;99.90;;;4.68;100.00;96244.97;5024955;28;1523;-67
2023/11/11 01:04:09;;;;;;;;;;;5.40;99.90;;;4.71;100.00;96255.94;5040553;28;1985;-68
2023/11/11 01:06:36;;;;;;;;;;;5.40;99.90;;;4.68;100.00;96260.38;5039999;28;1421;-67
2023/11/11 01:09:03;;;;;;;;;;;5.40;99.90;;;4.68;100.00;96273.25;5043504;28;1560;-68
2023/11/11 01:11:30;;;;;;;;;;;5.40;99.90;;;4.70;100.00;96276.56;5043537;28;1706;-67
2023/11/11 01:13:57;;;;;;;;;;;5.40;99.90;;;4.58;100.00;96277.88;5040609;28;1609;-68
2023/11/11 01:16:24;;;;;;;;;;;5.30;99.90;;;4.67;100.00;96287.78;5039617;28;1480;-68
2023/11/11 01:18:51;;;;;;;;;;;5.30;99.90;;;4.63;100.00;96293.13;5039458;28;1461;-67
2023/11/11 01:21:18;;;;;;;;;;;5.30;99.90;;;4.64;100.00;96299.94;5010439;28;1517;-67
2023/11/11 01:23:45;;;;;;;;;;;5.30;99.90;;;4.60;100.00;96301.78;5040174;28;1902;-68
2023/11/11 01:26:12;;;;;;;;;;;5.30;99.90;;;4.66;100.00;96308.44;5039285;28;1496;-68
2023/11/11 01:28:39;;;;;;;;;;;5.30;99.90;;;4.58;100.00;96296.72;5044930;28;1460;-68
2023/11/11 01:31:06;;;;;;;;;;;5.30;99.90;;;4.59;100.00;96290.69;5040337;28;1622;-68
2023/11/11 01:33:33;;;;;;;;;;;5.30;99.90;;;4.56;100.00;96292.53;5039402;28;1622;-67
2023/11/11 01:36:01;;;;;;;;;;;5.30;99.90;;;4.67;100.00;96302.38;5041230;28;1418;-68
2023/11/11 01:38:28;;;;;;;;;;;5.40;99.90;;;4.68;100.00;96309.22;5042914;28;1594;-68
2023/11/11 01:40:55;;;;;;;;;;;5.30;99.90;;;4.77;100.00;96317.41;5042861;28;1646;-67
2023/11/11 01:43:23;;;;;;;;;;;5.40;99.90;;;4.78;100.00;96323.38;5044818;28;1743;-68
2023/11/11 01:45:54;;;;;;;;;;;5.50;99.90;;;4.78;100.00;96325.94;5042119;28;1965;-68
2023/11/11 01:48:22;;;;;;;;;;;5.50;99.90;;;4.82;100.00;96324.91;5038057;28;1749;-68
2023/11/11 01:50:49;;;;;;;;;;;5.50;99.90;;;4.87;100.00;96324.75;5044167;28;1516;-67
2023/11/11 01:53:17;;;;;;;;;;;5.50;99.90;;;4.85;100.00;96341.97;5024696;28;1622;-68
2023/11/11 01:55:44;;;;;;;;;;;5.50;99.90;;;4.91;100.00;96342.56;5024139;28;1574;-68
2023/11/11 01:58:12;;;;;;;;;;;5.50;99.90;;;5.00;100.00;96351.63;5038842;28;1459;-68
2023/11/11 02:00:40;;;;;;;;;;;5.50;99.90;;;5.03;100.00;96347.19;5022786;28;1466;-68
2023/11/11 02:03:08;;;;;;;;;;;5.60;99.90;;;5.07;100.00;96350.50;5024478;28;1524;-68
2023/11/11 02:05:36;;;;;;;;;;;5.60;99.90;;;5.03;100.00;96360.06;5029450;28;1979;-68
2023/11/11 02:08:06;;;;;;;;;;;5.70;99.90;;;5.07;100.00;96353.06;5039251;28;1512;-68
2023/11/11 02:10:37;;;;;;;;;;;5.70;99.90;;;5.17;100.00;96351.78;5028920;28;1441;-67
2023/11/11 02:13:05;;;;;;;;;;;5.80;99.90;;;5.16;100.00;96349.28;5028615;28;1476;-67
2023/11/11 02:15:35;;;;;;;;;;;5.80;99.90;;;5.21;100.00;96363.63;5026377;28;1402;-67
2023/11/11 02:18:05;;;;;;;;;;;5.90;99.90;;;5.20;100.00;96348.25;5045049;28;1460;-68
2023/11/11 02:20:35;;;;;;;;;;;5.80;99.90;;;5.18;100.00;96348.31;5046201;28;1531;-67
2023/11/11 02:23:03;;;;;;;;;;;5.90;99.90;;;5.25;100.00;96364.34;5043743;28;1876;-67
2023/11/11 02:25:30;;;;;;;;;;;5.90;99.90;;;5.36;100.00;96356.16;5030453;28;1894;-67
2023/11/11 02:27:57;;;;;;;;;;;5.90;99.90;;;5.22;100.00;96359.31;5045759;28;1495;-67
2023/11/11 02:30:24;;;;;;;;;;;6.00;99.90;;;5.28;100.00;96361.63;5025622;28;1480;-68
2023/11/11 02:32:51;;;;;;;;;;;6.00;99.90;;;5.26;100.00;96378.03;5049861;28;1789;-68
2023/11/11 02:35:18;;;;;;;;;;;6.00;99.90;;;5.27;100.00;96362.56;5032256;28;1675;-67
2023/11/11 02:37:45;;;;;;;;;;;6.00;99.90;;;5.33;100.00;96371.75;5042923;28;1424;-68
2023/11/11 02:40:12;;;;;;;;;;;6.00;99.90;;;5.39;100.00;96379.22;5026331;28;1453;-68
2023/11/11 02:42:41;;;;;;;;;;;6.00;99.90;;;5.37;100.00;96371.56;5029441;28;1399;-68
2023/11/11 02:45:09;;;;;;;;;;;6.00;99.90;;;5.38;100.00;96395.53;5043822;28;1979;-68
2023/11/11 02:47:36;;;;;;;;;;;6.00;99.90;;;5.29;100.00;96386.47;5042964;28;1490;-68
2023/11/11 02:50:04;;;;;;;;;;;6.00;99.90;;;5.35;100.00;96393.09;5040781;28;1427;-68
2023/11/11 02:52:31;;;;;;;;;;;6.10;99.90;;;5.38;100.00;96404.13;5040301;28;1545;-67
2023/11/11 02:54:58;;;;;;;;;;;6.10;99.90;;;5.38;100.00;96405.84;5043943;28;1390;-67
2023/11/11 02:57:25;;;;;;;;;;;6.10;99.90;;;5.45;100.00;96422.69;5037132;28;1605;-67
2023/11/11 02:59:53;;;;;;;;;;;6.00;99.90;;;5.36;100.00;96412.78;5043036;28;1427;-67
2023/11/11 03:02:21;;;;;;;;;;;6.10;99.90;;;5.42;100.00;96420.25;5040406;28;1560;-67
2023/11/11 03:04:49;;;;;;;;;;;6.10;99.90;;;5.41;100.00;96422.00;5045299;28;1907;-67
2023/11/11 03:07:17;;;;;;;;;;;6.10;99.90;;;5.37;100.00;96425.59;5038431;28;1575;-68
2023/11/11 03:09:44;;;;;;;;;;;6.00;99.90;;;5.45;100.00;96436.41;5045095;28;1278;-68
2023/11/11 03:12:11;;;;;;;;;;;6.10;99.90;;;5.39;100.00;96434.09;5040705;28;1606;-68
2023/11/11 03:14:40;;;;;;;;;;;6.10;99.90;;;5.42;100.00;96443.41;5042266;28;1536;-68
2023/11/11 03:17:08;;;;;;;;;;;6.10;99.90;;;5.38;100.00;96444.44;5041071;28;1576;-68
2023/11/11 03:19:35;;;;;;;;;;;6.10;99.90;;;5.42;100.00;96454.53;5024128;28;1424;-67
2023/11/11 03:22:02;;;;;;;;;;;6.10;99.90;;;5.42;100.00;96451.13;5042297;28;1421;-67
2023/11/11 03:24:30;;;;;;;;;;;6.10;99.90;;;5.43;100.00;96456.22;5044693;28;2008;-68
2023/11/11 03:26:57;;;;;;;;;;;6.10;99.90;;;5.51;100.00;96473.09;5042091;28;1385;-67
2023/11/11 03:29:24;;;;;;;;;;;6.00;99.90;;;5.37;100.00;96456.47;5041410;28;1392;-68
2023/11/11 03:32:08;;;;;;;;;;;6.10;99.90;;;5.36;100.00;96469.38;5040541;28;1412;-67
2023/11/11 03:34:35;;;;;;;;;;;6.10;99.90;;;5.40;100.00;96469.19;5047598;28;1462;-67
2023/11/11 03:37:03;;;;;;;;;;;6.10;99.90;;;5.38;100.00;96470.16;5044894;28;1392;-67
2023/11/11 03:39:32;;;;;;;;;;;6.10;99.90;;;5.41;100.00;96468.31;5045676;28;1209;-67
2023/11/11 03:41:59;;;;;;;;;;;6.10;99.90;;;5.44;100.00;96478.47;5041380;28;1439;-67
2023/11/11 03:44:26;;;;;;;;;;;6.00;99.90;;;5.40;100.00;96476.91;5041585;28;2012;-67
2023/11/11 03:46:55;;;;;;;;;;;6.10;99.90;;;5.27;100.00;96473.19;5042200;28;2066;-67
2023/11/11 03:49:22;;;;;;;;;;;6.10;99.90;;;5.33;100.00;96485.78;5038694;28;1405;-67
2023/11/11 03:51:48;;;;;;;;;;;6.00;99.90;;;5.29;100.00;96504.84;5040755;28;1433;-67
2023/11/11 03:54:16;;;;;;;;;;;6.00;99.90;;;5.29;100.00;96506.53;5008981;28;1453;-67
2023/11/11 03:56:44;;;;;;;;;;;6.00;99.90;;;5.25;100.00;96503.28;5043223;28;1403;-68
2023/11/11 03:59:11;;;;;;;;;;;6.00;99.90;;;5.37;100.00;96507.94;5030131;28;1433;-68
2023/11/11 04:01:38;;;;;;;;;;;6.00;99.90;;;5.43;100.00;96515.41;5044446;28;1453;-67
2023/11/11 04:04:05;;;;;;;;;;;6.00;99.90;;;5.41;100.00;96511.22;5042404;28;1477;-67
2023/11/11 04:06:32;;;;;;;;;;;6.00;99.90;;;5.44;100.00;96518.81;5043656;28;1914;-67
2023/11/11 04:08:59;;;;;;;;;;;6.10;99.90;;;5.47;100.00;96539.28;5025090;28;1436;-67
2023/11/11 04:11:27;;;;;;;;;;;6.10;99.90;;;5.46;100.00;96545.34;5040601;28;1268;-67
2023/11/11 04:13:55;;;;;;;;;;;6.10;99.90;;;5.40;100.00;96540.44;5031918;28;1407;-68
2023/11/11 04:16:26;;;;;;;;;;;6.10;99.90;;;5.39;100.00;96544.75;5030563;28;1356;-68
2023/11/11 04:18:53;;;;;;;;;;;6.10;99.90;;;5.49;100.00;96549.53;5041681;28;1494;-67
2023/11/11 04:21:20;;;;;;;;;;;6.10;99.90;;;5.57;100.00;96550.09;5040426;28;1443;-67
2023/11/11 04:23:47;;;;;;;;;;;6.10;99.90;;;5.52;100.00;96555.41;5047267;28;1479;-68
2023/11/11 04:26:14;;;;;;;;;;;6.10;99.90;;;5.49;100.00;96570.94;5043223;28;1902;-67
2023/11/11 04:28:43;;;;;;;;;;;6.10;99.90;;;5.52;100.00;96575.13;5038192;28;1382;-67
2023/11/11 04:31:12;;;;;;;;;;;6.10;99.90;;;5.44;100.00;96591.72;5039939;28;1498;-68
2023/11/11 04:33:39;;;;;;;;;;;6.10;99.90;;;5.44;100.00;96591.72;5025871;28;1413;-68
2023/11/11 04:36:06;;;;;;;;;;;6.10;99.90;;;5.45;100.00;96580.53;5042929;28;1752;-68
2023/11/11 04:38:36;;;;;;;;;;;6.10;99.90;;;5.34;100.00;96566.41;5043672;28;1329;-68
2023/11/11 04:41:05;;;;;;;;;;;6.10;99.90;;;5.44;100.00;96599.44;5022079;28;1374;-68
2023/11/11 04:43:34;;;;;;;;;;;6.10;99.90;;;5.42;100.00;96595.25;5044193;28;1404;-68
2023/11/11 04:46:02;;;;;;;;;;;6.10;99.90;;;5.49;100.00;96601.84;5037852;28;1919;-68
2023/11/11 04:48:29;;;;;;;;;;;6.10;99.90;;;5.47;100.00;96589.94;5026446;28;1374;-68
2023/11/11 04:50:57;;;;;;;;;;;6.10;99.90;;;5.45;100.00;96597.69;5040186;28;1581;-68
2023/11/11 04:53:28;;;;;;;;;;;6.10;99.90;;;5.42;100.00;96606.38;5024858;28;1384;-68
2023/11/11 04:55:55;;;;;;;;;;;6.10;99.90;;;5.48;100.00;96604.50;5026753;28;1224;-67
2023/11/11 04:58:23;;;;;;;;;;;6.10;99.90;;;5.47;100.00;96624.22;5041632;28;1647;-68
2023/11/11 05:00:51;;;;;;;;;;;6.10;99.90;;;5.42;100.00;96614.09;5041247;28;1486;-68
2023/11/11 05:03:18;;;;;;;;;;;6.10;99.90;;;5.49;100.00;96629.31;5039499;28;1372;-67
2023/11/11 05:05:45;;;;;;;;;;;6.10;99.90;;;5.43;100.00;96620.09;5039871;28;1969;-68
2023/11/11 05:08:12;;;;;;;;;;;6.10;99.90;;;5.45;100.00;96632.00;5024463;28;1481;-67
2023/11/11 05:10:39;;;;;;;;;;;6.10;99.90;;;5.45;100.00;96644.03;5043511;28;1319;-67
2023/11/11 05:13:08;;;;;;;;;;;6.10;99.90;;;5.41;100.00;96640.75;5039947;28;1436;-67
2023/11/11 05:15:47;;;;;;;;;;;6.10;99.90;;;5.45;100.00;96657.75;5044048;28;1459;-67
2023/11/11 05:18:14;;;;;;;;;;;6.10;99.90;;;5.37;100.00;96646.88;5041466;28;1411;-68
2023/11/11 05:20:41;;;;;;;;;;;6.10;99.90;;;5.45;100.00;96659.47;5041905;28;1383;-68
2023/11/11 05:23:11;;;;;;;;;;;6.10;99.90;;;5.38;100.00;96676.91;5040983;28;1565;-67
2023/11/11 05:25:38;;;;;;;;;;;6.10;99.90;;;5.39;100.00;96667.44;5040020;28;1906;-68
2023/11/11 05:28:05;;;;;;;;;;;6.00;99.90;;;5.44;100.00;96670.66;5042565;28;1719;-68
2023/11/11 05:30:33;;;;;;;;;;;6.00;99.90;;;5.42;100.00;96672.47;5039244;28;1466;-68
2023/11/11 05:33:00;;;;;;;;;;;6.00;99.90;;;5.39;100.00;96675.16;5039371;28;1435;-68
2023/11/11 05:35:27;;;;;;;;;;;6.00;99.90;;;5.43;100.00;96685.28;5021065;28;1273;-68
2023/11/11 05:37:54;;;;;;;;;;;6.00;99.90;;;5.28;100.00;96674.69;5041690;28;1473;-68
2023/11/11 05:40:21;;;;;;;;;;;6.00;99.90;;;5.28;100.00;96669.56;5042651;28;1432;-68
2023/11/11 05:42:48;;;;;;;;;;;6.00;99.90;;;5.27;100.00;96691.00;5038046;28;1306;-68
2023/11/11 05:45:17;;;;;;;;;;;6.00;99.90;;;5.33;100.00;96683.91;5040809;28;1895;-68
2023/11/11 05:47:45;;;;;;;;;;;5.90;99.90;;;5.30;100.00;96699.47;5046788;28;1595;-67
2023/11/11 05:50:12;;;;;;;;;;;6.00;99.90;;;5.32;100.00;96704.56;5040827;28;1411;-67
2023/11/11 05:52:39;;;;;;;;;;;6.00;99.90;;;5.22;100.00;96688.59;5048876;28;1407;-67
2023/11/11 05:55:08;;;;;;;;;;;6.00;99.90;;;5.24;100.00;96717.69;5039045;28;1417;-67
2023/11/11 05:57:38;;;;;;;;;;;6.00;99.90;;;5.35;100.00;96713.00;5044555;28;1505;-67
2023/11/11 06:00:11;;;;;;;;;;;6.00;99.90;;;5.20;100.00;96711.84;5025903;28;1450;-67
2023/11/11 06:02:39;;;;;;;;;;;6.00;99.90;;;5.22;100.00;96706.63;5041224;28;1509;-67
2023/11/11 06:05:06;;;;;;;;;;;6.00;99.90;;;5.16;100.00;96728.25;5033280;28;1902;-67
2023/11/11 06:07:33;;;;;;;;;;;5.90;99.90;;;5.24;100.00;96721.13;5041177;28;1389;-67
2023/11/11 06:10:00;;;;;;;;;;;5.90;99.90;;;5.19;100.00;96733.28;5041412;28;1587;-67
2023/11/11 06:12:27;;;;;;;;;;;5.90;99.90;;;5.15;100.00;96730.88;5029384;28;1403;-67
2023/11/11 06:14:54;;;;;;;;;;;5.90;99.90;;;5.18;100.00;96741.09;5029307;28;1457;-67
2023/11/11 06:17:21;;;;;;;;;;;5.90;99.90;;;5.18;100.00;96756.53;5027375;28;1450;-67
2023/11/11 06:19:48;;;;;;;;;;;5.90;99.90;;;5.25;100.00;96755.41;5027131;28;1422;-67
2023/11/11 06:22:15;;;;;;;;;;;5.90;99.90;;;5.17;100.00;96752.25;5032850;28;1513;-67
2023/11/11 06:24:42;;;;;;;;;;;5.90;99.90;;;5.12;100.00;96756.72;5048813;28;1327;-67
2023/11/11 06:27:09;;;;;;;;;;;5.90;99.90;;;5.14;100.00;96758.34;5045532;28;1909;-67
2023/11/11 06:29:36;;;;;;;;;;;5.90;99.90;;;5.14;100.00;96768.63;5028713;28;1621;-67
2023/11/11 06:32:04;;;;;;;;;;;5.80;99.90;;;5.22;100.00;96766.66;5031007;28;1370;-67
2023/11/11 06:34:31;;;;;;;;;;;5.80;99.90;;;4.94;100.00;96765.88;5045061;28;1712;-67
2023/11/11 06:36:58;;;;;;;;;;;5.80;99.90;;;5.07;100.00;96768.91;5045830;28;1424;-67
2023/11/11 06:39:26;;;;;;;;;;;5.70;99.90;;;4.88;100.00;96787.53;5030156;28;1469;-67
2023/11/11 06:41:52;;;;;;;;;;;5.70;99.90;;;5.12;100.00;96785.00;5045321;28;1450;-67
2023/11/11 06:44:20;;;;;;;;;;;5.70;99.90;;;5.01;100.00;96782.78;5044982;28;1209;-67
2023/11/11 06:46:47;;;;;;;;;;;5.60;99.90;;;5.08;100.00;96798.88;5041952;28;2304;-67
2023/11/11 06:49:14;;;;;;;;;;;5.60;99.90;;;4.96;100.00;96795.81;5043298;28;1659;-67
2023/11/11 06:51:41;;;;;;;;;;;5.70;99.90;;;4.84;100.00;96805.66;5044770;28;1416;-67
2023/11/11 06:54:09;;;;;;;;;;;5.60;99.90;;;4.87;100.00;96811.53;5043506;28;1377;-67
2023/11/11 06:56:36;;;;;;;;;;;5.60;99.90;;;4.81;100.00;96812.59;5043414;28;1422;-67
2023/11/11 06:59:03;;;;;;;;;;;5.70;99.90;;;4.98;100.00;96824.06;5036949;28;1361;-67
2023/11/11 07:01:30;;;;;;;;;;;5.60;99.90;;;4.97;100.00;96823.22;5043326;28;1546;-67
2023/11/11 07:03:57;;;;;;;;;;;5.60;99.90;;;5.13;100.00;96826.13;5043692;28;1430;-67
2023/11/11 07:06:25;;;;;;;;;;;5.70;99.90;;;5.03;100.00;96835.03;5043222;28;1902;-68
2023/11/11 07:08:52;;;;;;;;;;;5.70;99.90;;;5.06;100.00;96828.94;5038328;28;1565;-67
2023/11/11 07:11:19;;;;;;;;;;;5.70;99.90;;;5.13;100.00;96833.84;5040690;28;1423;-67
2023/11/11 07:13:46;;;;;;;;;;;5.80;99.90;;;5.09;100.00;96828.84;5043609;28;1432;-67
2023/11/11 07:16:16;;;;;;;;;;;5.70;99.90;;;5.15;100.00;96837.19;5045281;28;1477;-68
2023/11/11 07:18:44;;;;;;;;;;;5.80;99.90;;;5.18;100.00;96841.41;5029021;28;1280;-67
2023/11/11 07:21:24;;;;;;;;;;;5.80;99.90;;;5.23;100.00;96842.09;5025057;28;1525;-67
2023/11/11 07:23:52;;;;;;;;;;;5.80;99.90;;;5.24;100.00;96854.06;5041196;28;1458;-67
2023/11/11 07:26:20;;;;;;;;;;;5.90;99.90;;;5.26;100.00;96864.31;5048057;28;1910;-67
2023/11/11 07:28:48;;;;;;;;;;;5.80;99.90;;;5.20;100.00;96858.47;5031047;28;1362;-67
2023/11/11 07:31:16;;;;;;;;;;;5.80;99.90;;;5.33;100.00;96869.19;5048894;28;1444;-68
2023/11/11 07:33:45;;;;;;;;;;;5.80;99.90;;;5.11;100.00;96863.06;5024984;28;1402;-67
2023/11/11 07:36:12;;;;;;;;;;;5.90;99.90;;;5.19;100.00;96861.94;5046502;28;1314;-67
2023/11/11 07:38:40;;;;;;;;;;;5.90;99.90;;;5.16;100.00;96869.75;5030324;28;1395;-68
2023/11/11 07:41:10;;;;;;;;;;;5.90;99.90;;;5.30;100.00;96858.19;5045743;28;1390;-68
2023/11/11 07:43:38;;;;;;;;;;;6.00;99.90;;;5.31;100.00;96862.41;5027891;28;1453;-67
2023/11/11 07:46:05;;;;;;;;;;;5.90;99.90;;;5.31;100.00;96873.53;5040310;28;1910;-67
2023/11/11 07:48:33;;;;;;;;;;;5.90;99.90;;;5.35;100.00;96851.97;5044117;28;1365;-67
2023/11/11 07:51:01;;;;;;;;;;;5.90;99.90;;;5.10;100.00;96866.53;5025757;28;1411;-67
2023/11/11 07:53:28;;;;;;;;;;;5.90;99.90;;;5.13;100.00;96880.16;5043088;28;1421;-67
2023/11/11 07:55:55;;;;;;;;;;;5.90;99.90;;;5.26;100.00;96875.44;5041560;28;1444;-67
2023/11/11 07:58:22;;;;;;;;;;;5.90;99.90;;;5.15;100.00;96883.50;5044691;28;1241;-67
2023/11/11 08:00:52;;;;;;;;;;;5.90;99.90;;;5.47;100.00;96891.06;5046054;28;1420;-67
2023/11/11 08:03:19;;;;;;;;;;;5.90;99.90;;;5.40;100.00;96886.09;5045162;28;1400;-67
2023/11/11 08:05:46;;;;;;;;;;;6.00;99.90;;;5.44;100.00;96886.84;5022651;28;1988;-67
2023/11/11 08:08:12;;;;;;;;;;;5.90;99.90;;;5.35;100.00;96884.59;5026985;28;1739;-67
2023/11/11 08:10:45;;;;;;;;;;;6.00;99.90;;;5.19;100.00;96884.25;5042192;28;1374;-67
2023/11/11 08:13:12;;;;;;;;;;;5.90;99.90;;;5.19;100.00;96889.41;5028670;28;1513;-68
2023/11/11 08:15:39;;;;;;;;;;;5.90;99.90;;;5.20;100.00;96896.22;5043775;28;1437;-67
2023/11/11 08:18:06;;;;;;;;;;;5.90;99.90;;;5.45;100.00;96891.97;5041508;28;1481;-67
2023/11/11 08:20:33;;;;;;;;;;;6.10;99.90;;;5.41;100.00;96894.69;5029065;28;1394;-67
2023/11/11 08:22:59;;;;;;;;;;;6.10;99.90;;;5.37;100.00;96900.81;5024525;28;1357;-68
2023/11/11 08:25:27;;;;;;;;;;;6.10;99.90;;;5.35;100.00;96902.59;5024592;28;1395;-68
2023/11/11 08:27:55;;;;;;;;;;;6.00;99.90;;;5.35;100.00;96907.75;5011245;28;1985;-67
2023/11/11 08:30:22;;;;;;;;;;;5.90;99.90;;;5.49;100.00;96909.88;5043367;28;1188;-68
2023/11/11 08:32:49;;;;;;;;;;;5.90;99.90;;;5.41;100.00;96900.69;5040665;28;1525;-67
2023/11/11 08:35:16;;;;;;;;;;;5.80;99.90;;;5.33;100.00;96904.38;5047410;28;1832;-67
2023/11/11 08:37:44;;;;;;;;;;;5.90;99.90;;;5.49;100.00;96902.16;5044687;28;1404;-67
2023/11/11 08:40:12;;;;;;;;;;;6.00;99.90;;;5.58;100.00;96907.00;5029828;28;1920;-67
2023/11/11 08:42:40;;;;;;;;;;;6.10;99.90;;;5.48;100.00;96906.47;5023164;28;1714;-67
2023/11/11 08:45:09;;;;;;;;;;;6.00;99.90;;;5.56;100.00;96906.19;5036145;28;1523;-67
2023/11/11 08:47:37;;;;;;;;;;;6.00;99.90;;;5.35;100.00;96897.47;5038965;28;1991;-67
2023/11/11 08:50:09;;;;;;;;;;;6.00;99.90;;;5.37;100.00;96908.53;5043157;28;1397;-67
2023/11/11 08:52:38;;;;;;;;;;;6.00;99.90;;;5.50;100.00;96911.56;5042792;28;1549;-67
2023/11/11 08:55:22;;;;;;;;;;;6.10;99.90;;;5.36;100.00;96900.00;5044814;28;1420;-67
2023/11/11 08:57:50;;;;;;;;;;;6.00;99.90;;;5.32;100.00;96906.13;5043389;28;1528;-66
2023/11/11 09:00:18;;;;;;;;;;;6.00;99.90;;;5.52;100.00;96909.75;5046769;28;1392;-66
2023/11/11 09:02:45;;;;;;;;;;;6.10;99.90;;;5.47;100.00;96909.91;5038668;28;1460;-69
2023/11/11 09:05:12;;;;;;;;;;;6.10;99.90;;;5.61;100.00;96906.88;5042705;28;1422;-66
2023/11/11 09:07:39;;;;;;;;;;;6.10;99.90;;;5.65;100.00;96901.56;5037127;28;1915;-68
2023/11/11 09:10:06;;;;;;;;;;;6.20;99.90;;;5.87;100.00;96908.59;5042282;28;1451;-69
2023/11/11 09:12:34;;;;;;;;;;;6.20;99.90;;;6.05;100.00;96920.03;5042767;28;1552;-69
2023/11/11 09:15:01;;;;;;;;;;;6.20;99.90;;;5.75;100.00;96927.03;5044843;28;1585;-67
2023/11/11 09:17:28;;;;;;;;;;;6.30;99.90;;;5.85;100.00;96915.53;5044453;28;1370;-67
2023/11/11 09:19:55;;;;;;;;;;;6.20;99.90;;;5.86;100.00;96912.03;5023056;28;1431;-69
2023/11/11 09:22:22;;;;;;;;;;;6.20;99.90;;;5.80;100.00;96912.28;5040738;28;1578;-67
2023/11/11 09:24:51;;;;;;;;;;;6.30;99.90;;;5.92;100.00;96908.44;5040874;28;1588;-69
2023/11/11 09:27:18;;;;;;;;;;;6.50;99.90;;;6.03;100.00;96911.50;5018261;28;1918;-67
2023/11/11 09:29:45;;;;;;;;;;;6.50;99.90;;;5.98;100.00;96915.97;5041726;28;1432;-67
2023/11/11 09:32:12;;;;;;;;;;;6.30;99.90;;;5.82;100.00;96907.91;5021408;28;1575;-67
2023/11/11 09:34:43;;;;;;;;;;;6.40;99.90;;;5.88;100.00;96905.09;5023008;28;1403;-67
2023/11/11 09:37:10;;;;;;;;;;;6.40;99.90;;;5.82;100.00;96913.06;5023457;28;1593;-67
2023/11/11 09:39:37;;;;;;;;;;;6.50;99.90;;;5.93;100.00;96898.09;5041820;28;1511;-67
2023/11/11 09:42:07;;;;;;;;;;;6.40;99.90;;;6.20;100.00;96903.16;5023875;28;1474;-66
2023/11/11 09:44:39;;;;;;;;;;;6.60;99.90;;;6.00;100.00;96912.44;5044797;28;1309;-67
2023/11/11 09:47:14;;;;;;;;;;;6.70;99.90;;;6.07;100.00;96907.94;5039231;28;2051;-67
2023/11/11 09:49:41;;;;;;;;;;;6.50;99.90;;;6.07;100.00;96913.91;5022016;28;1128;-68
2023/11/11 09:52:11;;;;;;;;;;;6.70;99.90;;;6.05;100.00;96909.72;5007252;28;1482;-67
2023/11/11 09:54:40;;;;;;;;;;;6.60;99.90;;;6.07;100.00;96920.81;5044376;28;1353;-67
2023/11/11 09:57:10;;;;;;;;;;;6.60;99.90;;;6.12;100.00;96920.66;5034700;28;1587;-67
2023/11/11 09:59:38;;;;;;;;;;;6.60;99.90;;;6.24;100.00;96920.19;5023429;28;1386;-67
2023/11/11 10:02:08;;;;;;;;;;;6.50;99.90;;;6.28;100.00;96908.88;5022146;28;1626;-67
2023/11/11 10:04:38;;;;;;;;;;;6.60;99.90;;;6.20;100.00;96919.50;5039074;28;1384;-67
2023/11/11 10:07:05;;;;;;;;;;;6.60;99.90;;;5.89;100.00;96918.84;5040338;28;1918;-68
2023/11/11 10:09:32;;;;;;;;;;;6.70;99.90;;;6.12;100.00;96903.44;5039452;28;1425;-67
2023/11/11 10:11:59;;;;;;;;;;;6.60;99.90;;;6.18;100.00;96905.81;5022135;28;1613;-67
2023/11/11 10:14:26;;;;;;;;;;;6.70;99.90;;;6.66;100.00;96917.78;5040427;28;1923;-67
2023/11/11 10:16:58;;;;;;;;;;;6.80;99.90;;;6.43;100.00;96892.88;5026564;28;1315;-67
2023/11/11 10:19:26;;;;;;;;;;;6.90;99.90;;;6.84;100.00;96899.91;5035966;28;1588;-67
2023/11/11 10:21:57;;;;;;;;;;;7.10;99.90;;;6.95;100.00;96900.34;5035224;28;2071;-67
2023/11/11 10:24:25;;;;;;;;;;;7.20;99.90;;;7.15;100.00;96911.66;5041576;28;1447;-68
2023/11/11 10:26:53;;;;;;;;;;;7.40;99.90;;;7.19;100.00;96902.88;5022163;28;1922;-67
2023/11/11 10:29:19;;;;;;;;;;;7.50;99.90;;;6.98;100.00;96900.25;5036419;28;1523;-67
2023/11/11 10:31:47;;;;;;;;;;;7.50;99.90;;;6.88;100.00;96902.31;5037179;28;1554;-67
2023/11/11 10:34:14;;;;;;;;;;;7.60;99.90;;;7.17;100.00;96912.44;5024594;28;1422;-67
2023/11/11 10:36:43;;;;;;;;;;;7.60;99.90;;;6.81;100.00;96906.03;5023662;28;1642;-67
2023/11/11 10:39:10;;;;;;;;;;;7.60;99.90;;;6.49;100.00;96910.66;5043100;28;1344;-68
2023/11/11 10:41:40;;;;;;;;;;;7.40;99.90;;;6.54;100.00;96883.88;5045925;28;1406;-67
2023/11/11 10:44:08;;;;;;;;;;;7.30;99.90;;;6.65;100.00;96908.34;5040938;28;1471;-67
2023/11/11 10:46:37;;;;;;;;;;;7.30;99.90;;;6.70;100.00;96903.91;5043453;28;1937;-68
2023/11/11 10:49:04;;;;;;;;;;;7.10;99.90;;;6.46;100.00;96895.31;5044037;28;1259;-67
2023/11/11 10:51:33;;;;;;;;;;;7.00;99.90;;;6.47;100.00;96893.59;5043099;28;1593;-68
2023/11/11 10:54:05;;;;;;;;;;;7.00;99.90;;;6.43;100.00;96895.44;5028498;28;1511;-67
2023/11/11 10:56:33;;;;;;;;;;;6.90;99.90;;;6.64;100.00;96900.72;5043217;28;1701;-67
2023/11/11 10:59:04;;;;;;;;;;;7.00;99.90;;;6.75;100.00;96897.69;5042143;28;1847;-67
2023/11/11 11:01:35;;;;;;;;;;;7.20;99.90;;;6.84;100.00;96899.91;5039762;28;1537;-67
2023/11/11 11:04:08;;;;;;;;;;;7.20;99.90;;;6.91;100.00;96891.03;5023256;28;1499;-67
2023/11/11 11:06:58;;;;;;;;;;;7.20;99.90;;;6.68;100.00;96885.06;5029666;28;1922;-67
2023/11/11 11:09:44;;;;;;;;;;;7.20;99.90;;;6.71;100.00;96884.09;5028919;28;1485;-67
2023/11/11 11:12:30;;;;;;;;;;;7.20;99.90;;;6.69;100.00;96873.81;5024281;28;1534;-68
2023/11/11 11:15:00;;;;;;;;;;;7.30;99.90;;;6.70;100.00;96878.09;5038543;28;1467;-67
2023/11/11 11:17:35;;;;;;;;;;;7.30;99.90;;;6.72;100.00;96880.59;5035929;28;1543;-68
2023/11/11 11:20:12;;;;;;;;;;;7.20;99.90;;;6.91;100.00;96888.47;5035897;28;1634;-67
2023/11/11 11:22:40;;;;;;;;;;;7.30;99.90;;;6.96;100.00;96880.56;5042618;28;2090;-67
2023/11/11 11:25:40;;;;;;;;;;;7.30;99.90;;;6.94;100.00;96870.31;5046278;28;1527;-67
2023/11/11 11:28:22;;;;;;;;;;;7.50;99.90;;;6.79;100.00;96858.81;5041501;28;1975;-67
2023/11/11 11:31:02;;;;;;;;;;;7.50;99.90;;;6.93;100.00;96870.34;5042631;28;1656;-67
2023/11/11 11:33:31;;;;;;;;;;;7.70;99.90;;;6.92;100.00;96869.53;5040379;28;1385;-67
2023/11/11 11:36:05;;;;;;;;;;;7.70;99.90;;;6.97;100.00;96861.59;5024652;28;1779;-67
2023/11/11 11:38:34;;;;;;;;;;;7.70;99.90;;;7.19;100.00;96866.75;5041477;28;1438;-67